createdAt,value
2022-10-04T00:00:12.883Z,97896.25
2022-10-04T00:06:20.743Z,97892.66
2022-10-04T00:08:56.259Z,97886.41
2022-10-04T00:11:26.630Z,97882.72
2022-10-04T00:17:35.673Z,97873.50
2022-10-04T00:27:33.424Z,97871.28
2022-10-04T00:34:01.845Z,97875.97
2022-10-04T00:36:44.493Z,97874.78
2022-10-04T00:43:18.741Z,97871.44
2022-10-04T00:46:02.105Z,97864.84
2022-10-04T00:48:38.140Z,97867.31
2022-10-04T00:54:57.113Z,97863.63
2022-10-04T00:57:32.120Z,97864.38
2022-10-04T01:04:32.724Z,97858.75
2022-10-04T01:07:03.499Z,97841.53
2022-10-04T01:09:35.200Z,97848.22
2022-10-04T01:15:55.698Z,97861.06
2022-10-04T01:18:22.143Z,97858.31
2022-10-04T01:32:45.061Z,97840.38
2022-10-04T01:35:16.627Z,97833.50
2022-10-04T01:37:43.287Z,97836.88
2022-10-04T01:43:58.411Z,97823.56
2022-10-04T01:46:32.667Z,97833.47
2022-10-04T01:52:51.745Z,97835.88
2022-10-04T01:55:27.826Z,97828.28
2022-10-04T01:58:16.970Z,97831.19
2022-10-04T02:04:34.780Z,97836.31
2022-10-04T02:07:03.968Z,97834.97
2022-10-04T02:09:34.512Z,97826.63
2022-10-04T02:15:42.270Z,97824.50
2022-10-04T02:18:18.376Z,97814.88
2022-10-04T02:24:35.404Z,97813.84
2022-10-04T02:27:01.765Z,97821.16
2022-10-04T02:34:07.686Z,97816.28
2022-10-04T02:36:35.840Z,97823.63
2022-10-04T02:39:26.922Z,97821.09
2022-10-04T02:46:28.193Z,97815.84
2022-10-04T02:56:12.131Z,97812.50
2022-10-04T03:06:28.333Z,97820.81
2022-10-04T03:09:05.281Z,97812.03
2022-10-04T03:16:04.734Z,97823.94
2022-10-04T03:18:32.498Z,97824.09
2022-10-04T03:36:01.467Z,97797.03
2022-10-04T03:38:29.353Z,97805.38
2022-10-04T03:44:37.434Z,97819.56
2022-10-04T03:47:14.615Z,97815.34
2022-10-04T03:49:42.212Z,97818.66
2022-10-04T03:55:59.914Z,97831.25
2022-10-04T03:58:31.845Z,97830.22
2022-10-04T04:04:41.648Z,97827.88
2022-10-04T04:07:15.879Z,97828.84
2022-10-04T04:09:52.853Z,97817.72
2022-10-04T04:16:06.746Z,97815.72
2022-10-04T04:18:35.851Z,97810.00
2022-10-04T04:25:05.647Z,97814.97
2022-10-04T04:27:36.674Z,97811.47
2022-10-04T04:30:05.674Z,97816.06
2022-10-04T04:36:19.990Z,97810.53
2022-10-04T04:39:04.709Z,97818.97
2022-10-04T04:45:37.664Z,97821.56
2022-10-04T04:48:07.060Z,97820.69
2022-10-04T04:50:36.592Z,97822.41
2022-10-04T04:56:54.751Z,97830.47
2022-10-04T04:59:27.164Z,97825.69
2022-10-04T05:06:30.679Z,97841.13
2022-10-04T05:08:57.213Z,97851.25
2022-10-04T05:11:31.088Z,97850.41
2022-10-04T05:17:45.297Z,97832.53
2022-10-04T05:20:13.519Z,97824.88
2022-10-04T05:26:27.649Z,97847.97
2022-10-04T05:28:56.422Z,97840.13
2022-10-04T05:31:35.766Z,97837.63
2022-10-04T05:34:16.037Z,97841.56
2022-10-04T05:36:47.297Z,97850.44
2022-10-04T05:39:27.178Z,97845.81
2022-10-04T05:42:05.706Z,97848.13
2022-10-04T05:44:37.253Z,97847.84
2022-10-04T05:47:08.259Z,97839.72
2022-10-04T05:49:44.109Z,97840.09
2022-10-04T05:52:36.418Z,97843.13
2022-10-04T05:55:24.108Z,97855.69
2022-10-04T05:58:23.430Z,97858.91
2022-10-04T06:01:16.377Z,97860.25
2022-10-04T06:04:01.472Z,97845.47
2022-10-04T06:06:43.665Z,97843.03
2022-10-04T06:09:54.307Z,97846.13
2022-10-04T06:12:44.457Z,97849.84
2022-10-04T06:15:44.565Z,97839.56
2022-10-04T06:18:29.690Z,97836.56
2022-10-04T06:21:14.594Z,97825.69
2022-10-04T06:24:17.689Z,97832.88
2022-10-04T06:27:01.546Z,97834.03
2022-10-04T06:29:38.829Z,97821.69
2022-10-04T06:32:41.432Z,97814.81
2022-10-04T06:35:35.035Z,97830.94
2022-10-04T06:38:44.956Z,97853.34
2022-10-04T06:41:45.065Z,97851.16
2022-10-04T06:48:49.411Z,97867.28
2022-10-04T06:51:45.628Z,97875.84
2022-10-04T06:54:43.087Z,97859.97
2022-10-04T06:57:23.304Z,97876.09
2022-10-04T07:00:19.353Z,97869.31
2022-10-04T07:03:16.211Z,97865.41
2022-10-04T07:05:59.038Z,97856.25
2022-10-04T07:08:35.484Z,97853.66
2022-10-04T07:11:22.159Z,97856.13
2022-10-04T07:13:57.846Z,97867.03
2022-10-04T07:16:37.997Z,97850.66
2022-10-04T07:19:19.828Z,97837.28
2022-10-04T07:22:00.633Z,97837.50
2022-10-04T07:24:45.981Z,97846.06
2022-10-04T07:27:21.431Z,97848.69
2022-10-04T07:29:54.946Z,97853.69
2022-10-04T07:32:26.170Z,97860.94
2022-10-04T07:38:15.765Z,97844.16
2022-10-04T07:40:57.463Z,97841.63
2022-10-04T07:43:40.686Z,97837.53
2022-10-04T07:46:37.246Z,97824.53
2022-10-04T07:49:04.351Z,97830.53
2022-10-04T07:51:44.890Z,97834.63
2022-10-04T07:54:44.197Z,97838.44
2022-10-04T07:57:22.477Z,97822.41
2022-10-04T08:00:15.458Z,97824.78
2022-10-04T08:02:42.020Z,97838.88
2022-10-04T08:05:36.011Z,97846.84
2022-10-04T08:08:15.973Z,97849.72
2022-10-04T08:11:12.401Z,97830.75
2022-10-04T08:13:51.027Z,97831.53
2022-10-04T08:16:26.086Z,97836.69
2022-10-04T08:19:23.672Z,97850.03
2022-10-04T08:22:25.695Z,97854.47
2022-10-04T08:25:01.054Z,97839.06
2022-10-04T08:28:20.217Z,97826.75
2022-10-04T08:30:56.476Z,97825.47
2022-10-04T08:33:37.176Z,97820.16
2022-10-04T08:36:20.717Z,97824.84
2022-10-04T08:38:53.376Z,97823.63
2022-10-04T08:41:40.278Z,97820.97
2022-10-04T08:44:28.123Z,97826.31
2022-10-04T08:47:29.351Z,97826.56
2022-10-04T08:50:17.164Z,97826.44
2022-10-04T08:53:21.914Z,97824.56
2022-10-04T08:56:13.311Z,97817.78
2022-10-04T08:59:07.222Z,97816.59
2022-10-04T09:01:47.378Z,97823.25
2022-10-04T09:04:36.039Z,97830.75
2022-10-04T09:07:30.362Z,97825.97
2022-10-04T09:10:05.790Z,97822.25
2022-10-04T09:12:44.453Z,97824.59
2022-10-04T09:15:21.328Z,97830.81
2022-10-04T09:17:59.527Z,97835.63
2022-10-04T09:20:39.481Z,97835.84
2022-10-04T09:23:42.458Z,97819.72
2022-10-04T09:26:44.917Z,97819.59
2022-10-04T09:29:49.538Z,97830.09
2022-10-04T09:32:38.339Z,97836.94
2022-10-04T09:35:13.977Z,97836.69
2022-10-04T09:37:58.801Z,97829.03
2022-10-04T09:40:28.706Z,97829.00
2022-10-04T09:43:06.980Z,97835.03
2022-10-04T09:45:58.037Z,97820.25
2022-10-04T09:48:54.522Z,97817.44
2022-10-04T09:51:35.456Z,97816.09
2022-10-04T09:54:15.755Z,97823.31
2022-10-04T09:56:51.366Z,97822.66
2022-10-04T09:59:56.301Z,97821.97
2022-10-04T10:02:59.985Z,97807.00
2022-10-04T10:05:27.068Z,97815.06
2022-10-04T10:08:08.845Z,97808.94
2022-10-04T10:11:21.010Z,97811.66
2022-10-04T10:14:21.174Z,97819.44
2022-10-04T10:17:06.349Z,97815.81
2022-10-04T10:20:00.915Z,97819.22
2022-10-04T10:22:57.182Z,97814.88
2022-10-04T10:25:39.696Z,97813.41
2022-10-04T10:28:25.309Z,97814.22
2022-10-04T10:31:05.588Z,97818.00
2022-10-04T10:34:05.372Z,97815.88
2022-10-04T10:37:10.361Z,97815.22
2022-10-04T10:40:12.089Z,97814.03
2022-10-04T10:42:54.332Z,97816.81
2022-10-04T10:45:38.789Z,97812.28
2022-10-04T10:48:14.864Z,97815.47
2022-10-04T10:51:03.567Z,97819.72
2022-10-04T10:54:00.914Z,97817.53
2022-10-04T10:56:30.526Z,97821.72
2022-10-04T10:59:16.247Z,97820.91
2022-10-04T11:01:47.237Z,97817.34
2022-10-04T11:04:43.843Z,97814.00
2022-10-04T11:07:31.906Z,97813.28
2022-10-04T11:10:27.307Z,97806.00
2022-10-04T11:13:12.502Z,97801.81
2022-10-04T11:15:57.658Z,97783.94
2022-10-04T11:18:39.457Z,97787.19
2022-10-04T11:21:05.856Z,97790.41
2022-10-04T11:24:02.395Z,97791.59
2022-10-04T11:27:14.317Z,97789.94
2022-10-04T11:30:22.161Z,97786.34
2022-10-04T11:33:22.635Z,97787.09
2022-10-04T11:36:17.087Z,97788.84
2022-10-04T11:38:48.422Z,97785.88
2022-10-04T11:41:36.164Z,97786.81
2022-10-04T11:44:05.666Z,97777.84
2022-10-04T11:46:38.137Z,97780.47
2022-10-04T11:49:26.568Z,97784.16
2022-10-04T11:52:05.943Z,97777.88
2022-10-04T11:54:53.360Z,97778.28
2022-10-04T11:57:51.572Z,97779.63
2022-10-04T12:00:18.570Z,97778.66
2022-10-04T12:03:13.777Z,97791.25
2022-10-04T12:06:11.211Z,97789.97
2022-10-04T12:09:13.516Z,97777.03
2022-10-04T12:12:21.599Z,97775.81
2022-10-04T12:14:57.302Z,97766.88
2022-10-04T12:17:46.104Z,97766.94
2022-10-04T12:20:27.385Z,97758.44
2022-10-04T12:23:06.244Z,97754.13
2022-10-04T12:26:00.737Z,97752.34
2022-10-04T12:28:53.600Z,97742.69
2022-10-04T12:31:31.645Z,97742.66
2022-10-04T12:34:01.238Z,97735.41
2022-10-04T12:36:49.990Z,97731.97
2022-10-04T12:39:33.453Z,97737.16
2022-10-04T12:42:11.145Z,97737.41
2022-10-04T12:44:56.349Z,97734.31
2022-10-04T12:47:41.981Z,97731.25
2022-10-04T12:50:47.972Z,97728.31
2022-10-04T12:53:34.565Z,97726.53
2022-10-04T12:56:28.605Z,97717.25
2022-10-04T12:59:16.451Z,97723.75
2022-10-04T13:01:42.940Z,97721.72
2022-10-04T13:04:20.322Z,97717.13
2022-10-04T13:06:55.600Z,97715.50
2022-10-04T13:09:34.345Z,97721.06
2022-10-04T13:12:34.515Z,97704.50
2022-10-04T13:15:19.506Z,97714.38
2022-10-04T13:18:10.260Z,97710.72
2022-10-04T13:20:54.931Z,97713.09
2022-10-04T13:23:58.683Z,97714.47
2022-10-04T13:27:03.813Z,97715.16
2022-10-04T13:29:43.149Z,97711.53
2022-10-04T13:32:27.222Z,97710.44
2022-10-04T13:35:11.833Z,97709.84
2022-10-04T13:37:53.283Z,97714.00
2022-10-04T13:40:25.442Z,97724.44
2022-10-04T13:43:12.289Z,97717.25
2022-10-04T13:45:48.466Z,97718.34
2022-10-04T13:48:30.987Z,97721.63
2022-10-04T13:51:16.285Z,97731.63
2022-10-04T13:54:11.951Z,97733.16
2022-10-04T13:57:09.398Z,97719.72
2022-10-04T13:59:59.711Z,97730.94
2022-10-04T14:02:48.542Z,97723.28
2022-10-04T14:05:53.966Z,97720.91
2022-10-04T14:08:58.261Z,97722.78
2022-10-04T14:11:51.117Z,97726.91
2022-10-04T14:14:39.960Z,97722.97
2022-10-04T14:17:33.984Z,97721.53
2022-10-04T14:20:09.611Z,97732.78
2022-10-04T14:23:07.290Z,97722.47
2022-10-04T14:26:07.407Z,97724.47
2022-10-04T14:28:48.158Z,97736.06
2022-10-04T14:31:27.205Z,97737.28
2022-10-04T14:33:54.710Z,97735.34
2022-10-04T14:36:41.029Z,97733.53
2022-10-04T14:39:07.516Z,97732.63
2022-10-04T14:41:36.874Z,97735.78
2022-10-04T14:44:25.403Z,97725.03
2022-10-04T14:46:56.594Z,97730.44
2022-10-04T14:49:47.954Z,97735.75
2022-10-04T14:52:40.594Z,97727.78
2022-10-04T14:55:14.237Z,97735.22
2022-10-04T14:58:01.985Z,97738.47
2022-10-04T15:00:50.085Z,97734.38
2022-10-04T15:03:30.353Z,97725.59
2022-10-04T15:06:21.261Z,97734.88
2022-10-04T15:09:00.338Z,97728.13
2022-10-04T15:11:43.083Z,97726.09
2022-10-04T15:14:25.822Z,97720.31
2022-10-04T15:16:58.141Z,97724.91
2022-10-04T15:20:05.606Z,97720.06
2022-10-04T15:22:43.293Z,97725.53
2022-10-04T15:25:38.208Z,97727.81
2022-10-04T15:28:27.958Z,97719.38
2022-10-04T15:31:23.140Z,97723.78
2022-10-04T15:33:59.497Z,97720.28
2022-10-04T15:36:44.669Z,97725.94
2022-10-04T15:39:35.656Z,97726.47
2022-10-04T15:42:25.449Z,97718.84
2022-10-04T15:45:19.463Z,97729.94
2022-10-04T15:48:22.813Z,97729.47
2022-10-04T15:51:12.023Z,97729.59
2022-10-04T15:53:58.055Z,97731.38
2022-10-04T15:56:33.164Z,97729.44
2022-10-04T15:59:35.325Z,97730.13
2022-10-04T16:02:07.761Z,97728.13
2022-10-04T16:04:46.476Z,97728.13
2022-10-04T16:07:54.002Z,97737.38
2022-10-04T16:10:47.591Z,97730.22
2022-10-04T16:13:26.211Z,97727.53
2022-10-04T16:16:25.874Z,97727.28
2022-10-04T16:19:25.006Z,97730.00
2022-10-04T16:22:07.799Z,97726.34
2022-10-04T16:24:40.483Z,97728.81
2022-10-04T16:27:28.061Z,97730.94
2022-10-04T16:30:28.705Z,97736.06
2022-10-04T16:33:03.461Z,97730.16
2022-10-04T16:35:34.873Z,97738.00
2022-10-04T16:38:20.919Z,97732.41
2022-10-04T16:40:50.386Z,97738.00
2022-10-04T16:43:16.775Z,97745.28
2022-10-04T16:45:52.354Z,97743.50
2022-10-04T16:48:36.969Z,97746.34
2022-10-04T16:51:18.760Z,97751.81
2022-10-04T16:54:10.140Z,97747.00
2022-10-04T16:56:53.937Z,97748.66
2022-10-04T16:59:38.773Z,97750.16
2022-10-04T17:02:23.972Z,97745.56
2022-10-04T17:05:19.254Z,97748.16
2022-10-04T17:08:05.428Z,97744.84
2022-10-04T17:10:40.349Z,97742.84
2022-10-04T17:13:23.521Z,97743.94
2022-10-04T17:16:06.742Z,97740.53
2022-10-04T17:18:43.970Z,97738.94
2022-10-04T17:21:31.004Z,97742.84
2022-10-04T17:24:33.684Z,97739.28
2022-10-04T17:27:35.107Z,97736.47
2022-10-04T17:30:22.291Z,97740.28
2022-10-04T17:33:18.023Z,97745.84
2022-10-04T17:36:00.830Z,97746.03
2022-10-04T17:38:45.665Z,97755.28
2022-10-04T17:41:15.084Z,97763.47
2022-10-04T17:44:07.209Z,97764.66
2022-10-04T17:46:49.505Z,97763.25
2022-10-04T17:49:48.888Z,97768.44
2022-10-04T17:52:39.915Z,97763.97
2022-10-04T17:55:17.120Z,97763.44
2022-10-04T17:57:48.149Z,97764.97
2022-10-04T18:00:26.308Z,97767.66
2022-10-04T18:03:25.194Z,97761.03
2022-10-04T18:05:59.211Z,97772.06
2022-10-04T18:09:02.867Z,97772.34
2022-10-04T18:11:47.195Z,97771.81
2022-10-04T18:14:22.708Z,97773.09
2022-10-04T18:16:54.837Z,97767.38
2022-10-04T18:19:42.496Z,97767.28
2022-10-04T18:22:20.370Z,97762.38
2022-10-04T18:24:48.936Z,97766.97
2022-10-04T18:27:22.990Z,97760.09
2022-10-04T18:30:01.490Z,97766.78
2022-10-04T18:32:27.916Z,97769.09
2022-10-04T18:34:59.929Z,97768.75
2022-10-04T18:37:41.136Z,97774.91
2022-10-04T18:40:18.275Z,97765.69
2022-10-04T18:42:55.671Z,97764.94
2022-10-04T18:45:31.056Z,97767.69
2022-10-04T18:48:00.676Z,97772.88
2022-10-04T18:50:33.665Z,97764.44
2022-10-04T18:53:16.047Z,97764.84
2022-10-04T18:56:02.063Z,97765.97
2022-10-04T18:59:15.332Z,97773.34
2022-10-04T19:02:10.269Z,97764.91
2022-10-04T19:04:49.746Z,97765.06
2022-10-04T19:07:23.851Z,97764.28
2022-10-04T19:09:55.287Z,97770.00
2022-10-04T19:12:28.243Z,97770.63
2022-10-04T19:15:07.154Z,97780.59
2022-10-04T19:17:43.265Z,97779.41
2022-10-04T19:20:34.258Z,97778.06
2022-10-04T19:24:08.659Z,97774.97
2022-10-04T19:26:40.720Z,97775.56
2022-10-04T19:29:44.564Z,97784.47
2022-10-04T19:32:26.975Z,97783.91
2022-10-04T19:35:29.008Z,97778.69
2022-10-04T19:38:22.688Z,97790.19
2022-10-04T19:40:49.335Z,97791.78
2022-10-04T19:43:28.315Z,97782.22
2022-10-04T19:46:28.439Z,97787.28
2022-10-04T19:48:55.000Z,97791.28
2022-10-04T19:51:46.211Z,97789.13
2022-10-04T19:54:17.637Z,97788.53
2022-10-04T19:56:48.224Z,97787.25
2022-10-04T19:59:19.034Z,97799.06
2022-10-04T20:01:46.190Z,97795.63
2022-10-04T20:04:36.192Z,97798.09
2022-10-04T20:07:06.159Z,97811.72
2022-10-04T20:09:41.151Z,97815.97
2022-10-04T20:12:30.437Z,97815.38
2022-10-04T20:15:14.790Z,97822.50
2022-10-04T20:17:42.402Z,97822.81
2022-10-04T20:20:09.053Z,97816.84
2022-10-04T20:22:56.314Z,97818.78
2022-10-04T20:25:45.451Z,97818.53
2022-10-04T20:28:27.214Z,97819.38
2022-10-04T20:30:56.094Z,97814.38
2022-10-04T20:33:34.513Z,97810.47
2022-10-04T20:36:02.034Z,97813.84
2022-10-04T20:38:49.544Z,97810.63
2022-10-04T20:42:00.713Z,97813.53
2022-10-04T20:44:40.300Z,97813.22
2022-10-04T20:47:28.935Z,97804.97
2022-10-04T20:49:59.961Z,97803.31
2022-10-04T20:52:29.839Z,97806.72
2022-10-04T20:54:58.432Z,97812.63
2022-10-04T20:57:25.231Z,97816.41
2022-10-04T20:59:54.561Z,97815.66
2022-10-04T21:02:24.019Z,97815.88
2022-10-04T21:04:53.410Z,97816.78
2022-10-04T21:07:25.531Z,97817.69
2022-10-04T21:09:53.290Z,97824.59
2022-10-04T21:12:34.722Z,97834.69
2022-10-04T21:15:22.096Z,97832.22
2022-10-04T21:18:02.131Z,97825.34
2022-10-04T21:20:43.788Z,97842.28
2022-10-04T21:23:35.406Z,97835.88
2022-10-04T21:26:22.471Z,97834.97
2022-10-04T21:28:53.322Z,97836.91
2022-10-04T21:31:19.828Z,97826.53
2022-10-04T21:33:46.345Z,97837.97
2022-10-04T21:36:13.323Z,97835.47
2022-10-04T21:38:39.795Z,97832.97
2022-10-04T21:41:06.740Z,97839.28
2022-10-04T21:43:33.697Z,97842.47
2022-10-04T21:46:00.353Z,97841.03
2022-10-04T21:48:27.501Z,97845.19
2022-10-04T21:50:54.839Z,97853.09
2022-10-04T21:53:22.061Z,97852.31
2022-10-04T21:55:48.778Z,97853.16
2022-10-04T21:58:15.378Z,97858.44
2022-10-04T22:00:42.055Z,97854.13
2022-10-04T22:03:08.611Z,97858.00
2022-10-04T22:05:35.182Z,97851.94
2022-10-04T22:08:01.708Z,97860.72
2022-10-04T22:10:28.232Z,97868.63
2022-10-04T22:12:57.000Z,97866.59
2022-10-04T22:15:25.281Z,97852.56
2022-10-04T22:17:51.896Z,97864.13
2022-10-04T22:20:18.746Z,97856.59
2022-10-04T22:22:45.343Z,97856.03
2022-10-04T22:25:17.281Z,97865.94
2022-10-04T22:27:44.379Z,97858.75
2022-10-04T22:30:18.325Z,97854.13
2022-10-04T22:32:45.668Z,97865.56
2022-10-04T22:35:20.739Z,97871.19
2022-10-04T22:37:48.671Z,97868.16
2022-10-04T22:40:19.188Z,97870.47
2022-10-04T22:42:46.631Z,97874.84
2022-10-04T22:45:21.612Z,97873.38
2022-10-04T22:47:49.035Z,97865.78
2022-10-04T22:50:32.827Z,97872.84
2022-10-04T22:53:04.869Z,97873.69
2022-10-04T22:55:31.446Z,97873.50
2022-10-04T22:57:58.089Z,97874.41
2022-10-04T23:00:24.567Z,97869.59
2022-10-04T23:02:51.173Z,97869.41
2022-10-04T23:05:19.709Z,97867.81
2022-10-04T23:07:47.613Z,97870.72
2022-10-04T23:10:17.346Z,97866.50
2022-10-04T23:12:49.123Z,97880.91
2022-10-04T23:15:18.530Z,97880.00
2022-10-04T23:17:47.309Z,97873.97
2022-10-04T23:20:17.291Z,97869.59
2022-10-04T23:22:45.879Z,97865.38
2022-10-04T23:25:27.256Z,97866.22
2022-10-04T23:28:01.039Z,97877.81
2022-10-04T23:30:27.558Z,97866.66
2022-10-04T23:32:58.094Z,97868.69
2022-10-04T23:35:28.575Z,97867.25
2022-10-04T23:37:55.252Z,97880.13
2022-10-04T23:40:24.385Z,97877.69
2022-10-04T23:42:53.787Z,97877.44
2022-10-04T23:45:23.343Z,97881.22
2022-10-04T23:47:53.233Z,97877.06
2022-10-04T23:50:36.111Z,97871.28
2022-10-04T23:53:06.386Z,97873.56
2022-10-04T23:55:36.235Z,97874.34
2022-10-04T23:58:13.129Z,97870.75
